Saint John, WA

3:19 PM PDT on October 20, 2014 (GMT -0700)
Winona-Silk Stocking Road | Change Station
CLOSE
Current Station
Personal Weather Station
Location: Endicott, WA
Elevation: 1483 ft
Nearby Weather Stations

Elev 1483 ft 46.94 °N, 117.80 °W | Updated 2 seconds ago

Partly Cloudy
Partly Cloudy
70.9 °F
Feels Like 77 °F
N
4.5
Wind Variable Wind from WNW
Gusts 8.1 mph

Today
High -- | Low -- °F
--% Chance of Precip.
Yesterday
High -- | Low -- °F
Precip. -- in
7:15 AM 5:53 PM
Waning Crescent, 9% visible
Pressure 29.74 in
Visibility 10.0 miles
Clouds Clear
Heat Index 77 °F
Dew Point 44 °F
Humidity 38%
Rainfall 0.00 in
Snow Depth Not available.
UV 2 out of 12
Pollen 2.90 out of 12
Air Quality Not available.
Flu Activity Sporadic
METAR KPUW 202153Z AUTO 29010KT 10SM CLR 21/03 A2977 RMK AO2 SLP071 T02110033

More Conditions Fewer Conditions

Pressure 29.74 in
Visibility 10.0 miles
Clouds Clear
Heat Index 77 °F
Dew Point 44 °F
Humidity 38%
Rainfall 0.00 in
Snow Depth Not available.
UV 2 out of 12
Pollen 2.90 out of 12
Air Quality Not available.
Flu Activity Sporadic
METAR KPUW 202153Z AUTO 29010KT 10SM CLR 21/03 A2977 RMK AO2 SLP071 T02110033

More Conditions Fewer Conditions

10-Day Weather Forecast

Almanac

Astronomy

Oct. 20, 2014 Rise Set
Actual Time 7:15 AM PDT 5:53 PM PDT
Civil Twilight 6:44 AM PDT 6:24 PM PDT
Nautical Twilight 6:09 AM PDT 7:00 PM PDT
Astronomical Twilight 5:33 AM PDT 7:35 PM PDT
Moon 3:56 AM PDT 4:28 PM PDT
Length of Visible Light 11h 39m
Length of Day
10h 37m
Waning Crescent, 9% of the Moon is Illuminated
Today
Waning Crescent
Oct 23
New
Oct 30
First Quarter
Nov 6
Full
Nov 14
Last Quarter

Today's Extremes

State Highs State Lows

Community

WunderPhotos

Upload Photos

1,763,531 photos uploaded!

WunderBlogs® & News

By Dr. Jeff Masters
Director of Meteorology, Weather Underground
By Kari Strenfel
Meteorologist, Weather Underground
By Christopher C. Burt
Weather Historian, Weather Underground
October 20, 2014
October 20, 2014
October 20, 2014

Nearby

Snow Depth

Station Depth Elevation
Quartz Peak 1 in 4700 ft
Spruce Springs 0 in 5700 ft
Moses Mountain 0 in 5300 ft
Trough 0 in 5300 ft
Grouse Camp 0 in 5380 ft

Earthquake Activity

City Distance Mag. Time & Date
No recent earthquake activity has been reported nearby.
Minimum magnitude displayed is 2.5.

Coastal Water Temperatures

Place Temperature
No Stations Reporting

Nearby Weather Stations